sensor_id;sensor_type;location;lat;lon;timestamp;P1;durP1;ratioP1;P2;durP2;ratioP2
68821;SDS011;55834;50.870;4.606;2022-11-30T00:02:21;20.63;;;10.93;;
68821;SDS011;55834;50.870;4.606;2022-11-30T00:04:48;21.65;;;10.63;;
68821;SDS011;55834;50.870;4.606;2022-11-30T00:07:13;20.57;;;10.10;;
68821;SDS011;55834;50.870;4.606;2022-11-30T00:09:39;19.70;;;9.50;;
68821;SDS011;55834;50.870;4.606;2022-11-30T00:12:04;33.27;;;12.20;;
68821;SDS011;55834;50.870;4.606;2022-11-30T00:14:29;22.55;;;11.45;;
68821;SDS011;55834;50.870;4.606;2022-11-30T00:16:55;26.25;;;10.07;;
68821;SDS011;55834;50.870;4.606;2022-11-30T00:19:20;26.47;;;11.73;;
68821;SDS011;55834;50.870;4.606;2022-11-30T00:21:46;20.42;;;9.82;;
68821;SDS011;55834;50.870;4.606;2022-11-30T00:24:11;24.90;;;10.50;;
68821;SDS011;55834;50.870;4.606;2022-11-30T00:26:36;22.20;;;10.73;;
68821;SDS011;55834;50.870;4.606;2022-11-30T00:29:02;22.93;;;11.43;;
68821;SDS011;55834;50.870;4.606;2022-11-30T00:31:27;21.55;;;9.95;;
68821;SDS011;55834;50.870;4.606;2022-11-30T00:33:54;21.52;;;11.05;;
68821;SDS011;55834;50.870;4.606;2022-11-30T00:36:20;20.50;;;10.00;;
68821;SDS011;55834;50.870;4.606;2022-11-30T00:38:46;17.45;;;9.43;;
68821;SDS011;55834;50.870;4.606;2022-11-30T00:41:12;20.55;;;10.13;;
68821;SDS011;55834;50.870;4.606;2022-11-30T00:43:38;23.85;;;11.40;;
68821;SDS011;55834;50.870;4.606;2022-11-30T00:46:04;23.40;;;10.48;;
68821;SDS011;55834;50.870;4.606;2022-11-30T00:48:30;22.48;;;11.85;;
68821;SDS011;55834;50.870;4.606;2022-11-30T00:50:55;27.23;;;12.47;;
68821;SDS011;55834;50.870;4.606;2022-11-30T00:53:20;18.85;;;8.82;;
68821;SDS011;55834;50.870;4.606;2022-11-30T00:55:47;26.60;;;12.40;;
68821;SDS011;55834;50.870;4.606;2022-11-30T00:58:12;24.70;;;9.75;;
68821;SDS011;55834;50.870;4.606;2022-11-30T01:00:38;24.23;;;10.93;;
68821;SDS011;55834;50.870;4.606;2022-11-30T01:03:03;25.60;;;10.82;;
68821;SDS011;55834;50.870;4.606;2022-11-30T01:05:29;36.73;;;13.37;;
68821;SDS011;55834;50.870;4.606;2022-11-30T01:07:58;23.65;;;10.95;;
68821;SDS011;55834;50.870;4.606;2022-11-30T01:10:24;21.10;;;9.60;;
68821;SDS011;55834;50.870;4.606;2022-11-30T01:12:52;23.23;;;9.38;;
68821;SDS011;55834;50.870;4.606;2022-11-30T01:15:18;23.35;;;9.77;;
68821;SDS011;55834;50.870;4.606;2022-11-30T01:17:43;23.33;;;10.93;;
68821;SDS011;55834;50.870;4.606;2022-11-30T01:20:08;23.23;;;8.73;;
68821;SDS011;55834;50.870;4.606;2022-11-30T01:22:34;24.45;;;10.43;;
68821;SDS011;55834;50.870;4.606;2022-11-30T01:25:00;25.80;;;11.70;;
68821;SDS011;55834;50.870;4.606;2022-11-30T01:27:25;25.27;;;10.38;;
68821;SDS011;55834;50.870;4.606;2022-11-30T01:29:51;19.03;;;9.00;;
68821;SDS011;55834;50.870;4.606;2022-11-30T01:32:16;24.27;;;10.87;;
68821;SDS011;55834;50.870;4.606;2022-11-30T01:34:41;27.60;;;12.73;;
68821;SDS011;55834;50.870;4.606;2022-11-30T01:37:07;27.60;;;10.57;;
68821;SDS011;55834;50.870;4.606;2022-11-30T01:39:32;24.30;;;10.53;;
68821;SDS011;55834;50.870;4.606;2022-11-30T01:41:57;22.77;;;11.03;;
68821;SDS011;55834;50.870;4.606;2022-11-30T01:51:56;23.85;;;9.80;;
68821;SDS011;55834;50.870;4.606;2022-11-30T01:54:23;24.40;;;9.05;;
68821;SDS011;55834;50.870;4.606;2022-11-30T01:56:54;22.55;;;11.63;;
68821;SDS011;55834;50.870;4.606;2022-11-30T01:59:23;21.67;;;9.15;;
68821;SDS011;55834;50.870;4.606;2022-11-30T02:01:50;21.90;;;9.10;;
68821;SDS011;55834;50.870;4.606;2022-11-30T02:04:22;24.73;;;10.82;;
68821;SDS011;55834;50.870;4.606;2022-11-30T02:06:50;25.40;;;10.75;;
68821;SDS011;55834;50.870;4.606;2022-11-30T02:09:17;21.60;;;9.27;;
68821;SDS011;55834;50.870;4.606;2022-11-30T02:11:44;19.20;;;8.40;;
68821;SDS011;55834;50.870;4.606;2022-11-30T02:16:45;22.40;;;9.40;;
68821;SDS011;55834;50.870;4.606;2022-11-30T02:22:03;24.83;;;10.73;;
68821;SDS011;55834;50.870;4.606;2022-11-30T02:30:13;22.67;;;9.50;;
68821;SDS011;55834;50.870;4.606;2022-11-30T02:32:53;20.00;;;9.55;;
68821;SDS011;55834;50.870;4.606;2022-11-30T02:35:24;23.30;;;10.10;;
68821;SDS011;55834;50.870;4.606;2022-11-30T02:37:53;19.25;;;9.23;;
68821;SDS011;55834;50.870;4.606;2022-11-30T02:40:20;21.95;;;8.68;;
68821;SDS011;55834;50.870;4.606;2022-11-30T02:42:46;24.23;;;9.43;;
68821;SDS011;55834;50.870;4.606;2022-11-30T02:45:14;18.35;;;8.88;;
68821;SDS011;55834;50.870;4.606;2022-11-30T02:47:42;20.85;;;9.25;;
68821;SDS011;55834;50.870;4.606;2022-11-30T02:50:16;27.38;;;10.43;;
68821;SDS011;55834;50.870;4.606;2022-11-30T02:52:46;22.33;;;8.98;;
68821;SDS011;55834;50.870;4.606;2022-11-30T02:55:14;24.52;;;11.00;;
68821;SDS011;55834;50.870;4.606;2022-11-30T03:00:06;23.10;;;10.23;;
68821;SDS011;55834;50.870;4.606;2022-11-30T03:02:34;23.05;;;9.55;;
68821;SDS011;55834;50.870;4.606;2022-11-30T03:05:00;22.17;;;9.80;;
68821;SDS011;55834;50.870;4.606;2022-11-30T03:07:25;15.87;;;8.10;;
68821;SDS011;55834;50.870;4.606;2022-11-30T03:09:50;17.63;;;8.30;;
68821;SDS011;55834;50.870;4.606;2022-11-30T03:12:16;20.43;;;8.23;;
68821;SDS011;55834;50.870;4.606;2022-11-30T03:14:41;19.70;;;7.47;;
68821;SDS011;55834;50.870;4.606;2022-11-30T03:17:07;23.60;;;8.60;;
68821;SDS011;55834;50.870;4.606;2022-11-30T03:19:32;19.90;;;8.25;;
68821;SDS011;55834;50.870;4.606;2022-11-30T03:21:58;21.05;;;8.15;;
68821;SDS011;55834;50.870;4.606;2022-11-30T03:24:24;19.65;;;8.60;;
68821;SDS011;55834;50.870;4.606;2022-11-30T03:26:49;18.35;;;8.18;;
68821;SDS011;55834;50.870;4.606;2022-11-30T03:29:15;19.80;;;8.03;;
68821;SDS011;55834;50.870;4.606;2022-11-30T03:31:40;23.00;;;10.30;;
68821;SDS011;55834;50.870;4.606;2022-11-30T03:34:05;22.17;;;10.37;;
68821;SDS011;55834;50.870;4.606;2022-11-30T03:36:31;23.97;;;9.47;;
68821;SDS011;55834;50.870;4.606;2022-11-30T03:38:56;18.63;;;7.70;;
68821;SDS011;55834;50.870;4.606;2022-11-30T03:41:23;23.02;;;9.50;;
68821;SDS011;55834;50.870;4.606;2022-11-30T03:43:48;22.67;;;9.20;;
68821;SDS011;55834;50.870;4.606;2022-11-30T03:46:13;30.15;;;9.90;;
68821;SDS011;55834;50.870;4.606;2022-11-30T03:48:39;18.27;;;7.95;;
68821;SDS011;55834;50.870;4.606;2022-11-30T03:51:07;23.27;;;9.77;;
68821;SDS011;55834;50.870;4.606;2022-11-30T03:53:34;17.08;;;8.57;;
68821;SDS011;55834;50.870;4.606;2022-11-30T03:56:02;20.23;;;9.70;;
68821;SDS011;55834;50.870;4.606;2022-11-30T03:58:29;24.58;;;10.80;;
68821;SDS011;55834;50.870;4.606;2022-11-30T04:01:01;20.73;;;9.35;;
68821;SDS011;55834;50.870;4.606;2022-11-30T04:03:30;21.77;;;7.72;;
68821;SDS011;55834;50.870;4.606;2022-11-30T04:05:56;21.98;;;8.40;;
68821;SDS011;55834;50.870;4.606;2022-11-30T04:08:22;19.40;;;8.13;;
68821;SDS011;55834;50.870;4.606;2022-11-30T04:10:51;20.98;;;7.82;;
68821;SDS011;55834;50.870;4.606;2022-11-30T04:13:18;20.55;;;8.25;;
68821;SDS011;55834;50.870;4.606;2022-11-30T04:15:45;20.35;;;7.53;;
68821;SDS011;55834;50.870;4.606;2022-11-30T04:18:12;18.83;;;8.40;;
68821;SDS011;55834;50.870;4.606;2022-11-30T04:20:37;23.58;;;9.38;;
68821;SDS011;55834;50.870;4.606;2022-11-30T04:23:03;20.30;;;7.68;;
68821;SDS011;55834;50.870;4.606;2022-11-30T04:25:28;18.83;;;8.53;;
68821;SDS011;55834;50.870;4.606;2022-11-30T04:27:53;25.23;;;7.60;;
68821;SDS011;55834;50.870;4.606;2022-11-30T04:30:19;15.73;;;7.47;;
68821;SDS011;55834;50.870;4.606;2022-11-30T04:32:44;16.90;;;6.37;;
68821;SDS011;55834;50.870;4.606;2022-11-30T04:35:09;18.83;;;8.43;;
68821;SDS011;55834;50.870;4.606;2022-11-30T04:37:35;20.23;;;8.05;;
68821;SDS011;55834;50.870;4.606;2022-11-30T04:40:01;15.00;;;6.57;;
68821;SDS011;55834;50.870;4.606;2022-11-30T04:42:26;14.43;;;6.78;;
68821;SDS011;55834;50.870;4.606;2022-11-30T04:44:51;17.27;;;7.17;;
68821;SDS011;55834;50.870;4.606;2022-11-30T04:47:17;17.53;;;7.40;;
68821;SDS011;55834;50.870;4.606;2022-11-30T04:49:42;20.20;;;8.70;;
68821;SDS011;55834;50.870;4.606;2022-11-30T04:52:07;19.63;;;7.83;;
68821;SDS011;55834;50.870;4.606;2022-11-30T04:54:33;15.53;;;6.73;;
68821;SDS011;55834;50.870;4.606;2022-11-30T04:56:58;19.33;;;7.20;;
68821;SDS011;55834;50.870;4.606;2022-11-30T04:59:23;19.67;;;7.93;;
68821;SDS011;55834;50.870;4.606;2022-11-30T05:01:49;17.97;;;7.43;;
68821;SDS011;55834;50.870;4.606;2022-11-30T05:04:14;14.57;;;6.60;;
68821;SDS011;55834;50.870;4.606;2022-11-30T05:06:39;17.77;;;6.93;;
68821;SDS011;55834;50.870;4.606;2022-11-30T05:09:05;17.00;;;7.30;;
68821;SDS011;55834;50.870;4.606;2022-11-30T05:11:30;18.23;;;6.80;;
68821;SDS011;55834;50.870;4.606;2022-11-30T05:13:56;20.17;;;8.70;;
68821;SDS011;55834;50.870;4.606;2022-11-30T05:16:21;20.90;;;7.63;;
68821;SDS011;55834;50.870;4.606;2022-11-30T05:18:46;22.63;;;7.70;;
68821;SDS011;55834;50.870;4.606;2022-11-30T05:21:12;19.80;;;7.37;;
68821;SDS011;55834;50.870;4.606;2022-11-30T05:23:37;19.58;;;8.25;;
68821;SDS011;55834;50.870;4.606;2022-11-30T05:26:03;23.90;;;9.17;;
68821;SDS011;55834;50.870;4.606;2022-11-30T05:28:28;24.27;;;8.95;;
68821;SDS011;55834;50.870;4.606;2022-11-30T05:30:54;23.40;;;7.93;;
68821;SDS011;55834;50.870;4.606;2022-11-30T05:33:19;23.97;;;8.00;;
68821;SDS011;55834;50.870;4.606;2022-11-30T05:35:44;28.17;;;11.23;;
68821;SDS011;55834;50.870;4.606;2022-11-30T05:38:10;21.07;;;7.97;;
68821;SDS011;55834;50.870;4.606;2022-11-30T05:40:35;23.33;;;8.63;;
68821;SDS011;55834;50.870;4.606;2022-11-30T05:43:01;24.20;;;9.77;;
68821;SDS011;55834;50.870;4.606;2022-11-30T05:45:27;22.98;;;10.55;;
68821;SDS011;55834;50.870;4.606;2022-11-30T05:47:53;23.40;;;10.60;;
68821;SDS011;55834;50.870;4.606;2022-11-30T05:50:18;20.67;;;7.93;;
68821;SDS011;55834;50.870;4.606;2022-11-30T05:52:44;25.17;;;9.47;;
68821;SDS011;55834;50.870;4.606;2022-11-30T05:55:09;25.73;;;11.70;;
68821;SDS011;55834;50.870;4.606;2022-11-30T05:57:35;30.63;;;13.17;;
68821;SDS011;55834;50.870;4.606;2022-11-30T06:00:02;24.52;;;10.48;;
68821;SDS011;55834;50.870;4.606;2022-11-30T06:04:54;28.10;;;10.87;;
68821;SDS011;55834;50.870;4.606;2022-11-30T06:07:19;27.67;;;11.40;;
68821;SDS011;55834;50.870;4.606;2022-11-30T06:09:44;27.07;;;9.23;;
68821;SDS011;55834;50.870;4.606;2022-11-30T06:12:10;27.47;;;10.43;;
68821;SDS011;55834;50.870;4.606;2022-11-30T06:14:35;24.92;;;8.48;;
68821;SDS011;55834;50.870;4.606;2022-11-30T06:17:00;20.37;;;8.87;;
68821;SDS011;55834;50.870;4.606;2022-11-30T06:19:27;29.23;;;11.00;;
68821;SDS011;55834;50.870;4.606;2022-11-30T06:21:53;29.87;;;10.77;;
68821;SDS011;55834;50.870;4.606;2022-11-30T06:24:18;37.57;;;12.57;;
68821;SDS011;55834;50.870;4.606;2022-11-30T06:26:43;28.23;;;11.00;;
68821;SDS011;55834;50.870;4.606;2022-11-30T06:29:09;30.45;;;11.77;;
68821;SDS011;55834;50.870;4.606;2022-11-30T06:31:34;29.25;;;10.55;;
68821;SDS011;55834;50.870;4.606;2022-11-30T06:34:00;25.67;;;10.77;;
68821;SDS011;55834;50.870;4.606;2022-11-30T06:36:25;27.60;;;10.63;;
68821;SDS011;55834;50.870;4.606;2022-11-30T06:38:51;19.53;;;9.00;;
68821;SDS011;55834;50.870;4.606;2022-11-30T06:41:16;22.25;;;9.55;;
68821;SDS011;55834;50.870;4.606;2022-11-30T06:43:42;42.95;;;13.13;;
68821;SDS011;55834;50.870;4.606;2022-11-30T06:46:07;35.53;;;11.53;;
68821;SDS011;55834;50.870;4.606;2022-11-30T06:48:33;28.55;;;11.00;;
68821;SDS011;55834;50.870;4.606;2022-11-30T06:50:59;22.70;;;10.55;;
68821;SDS011;55834;50.870;4.606;2022-11-30T06:53:25;20.25;;;9.32;;
68821;SDS011;55834;50.870;4.606;2022-11-30T06:55:51;17.17;;;7.55;;
68821;SDS011;55834;50.870;4.606;2022-11-30T06:58:17;29.17;;;10.32;;
68821;SDS011;55834;50.870;4.606;2022-11-30T07:00:43;20.55;;;9.27;;
68821;SDS011;55834;50.870;4.606;2022-11-30T07:03:08;21.75;;;8.82;;
68821;SDS011;55834;50.870;4.606;2022-11-30T07:05:38;68.97;;;12.00;;
68821;SDS011;55834;50.870;4.606;2022-11-30T07:08:06;33.03;;;11.55;;
68821;SDS011;55834;50.870;4.606;2022-11-30T07:10:31;32.93;;;10.27;;
68821;SDS011;55834;50.870;4.606;2022-11-30T07:12:57;18.33;;;8.77;;
68821;SDS011;55834;50.870;4.606;2022-11-30T07:15:22;29.00;;;9.77;;
68821;SDS011;55834;50.870;4.606;2022-11-30T07:17:47;18.93;;;8.70;;
68821;SDS011;55834;50.870;4.606;2022-11-30T07:20:12;28.70;;;11.20;;
68821;SDS011;55834;50.870;4.606;2022-11-30T07:22:38;40.97;;;10.50;;
68821;SDS011;55834;50.870;4.606;2022-11-30T07:25:03;20.93;;;9.20;;
68821;SDS011;55834;50.870;4.606;2022-11-30T07:27:55;19.52;;;8.35;;
68821;SDS011;55834;50.870;4.606;2022-11-30T07:30:20;18.00;;;6.83;;
68821;SDS011;55834;50.870;4.606;2022-11-30T07:32:46;32.97;;;9.33;;
68821;SDS011;55834;50.870;4.606;2022-11-30T07:35:11;15.90;;;6.93;;
68821;SDS011;55834;50.870;4.606;2022-11-30T07:37:36;17.08;;;8.02;;
68821;SDS011;55834;50.870;4.606;2022-11-30T07:40:02;18.40;;;7.33;;
68821;SDS011;55834;50.870;4.606;2022-11-30T07:42:28;17.42;;;6.70;;
68821;SDS011;55834;50.870;4.606;2022-11-30T07:44:54;19.10;;;8.50;;
68821;SDS011;55834;50.870;4.606;2022-11-30T07:47:19;21.87;;;8.43;;
68821;SDS011;55834;50.870;4.606;2022-11-30T07:49:45;23.60;;;9.03;;
68821;SDS011;55834;50.870;4.606;2022-11-30T07:52:10;20.60;;;9.27;;
68821;SDS011;55834;50.870;4.606;2022-11-30T07:54:35;27.43;;;9.17;;
68821;SDS011;55834;50.870;4.606;2022-11-30T07:57:01;16.97;;;8.93;;
68821;SDS011;55834;50.870;4.606;2022-11-30T07:59:26;18.75;;;7.82;;
68821;SDS011;55834;50.870;4.606;2022-11-30T08:01:52;17.83;;;8.17;;
68821;SDS011;55834;50.870;4.606;2022-11-30T08:04:17;20.77;;;8.47;;
68821;SDS011;55834;50.870;4.606;2022-11-30T08:06:42;23.57;;;9.07;;
68821;SDS011;55834;50.870;4.606;2022-11-30T08:09:09;17.75;;;8.63;;
68821;SDS011;55834;50.870;4.606;2022-11-30T08:11:36;24.10;;;9.43;;
68821;SDS011;55834;50.870;4.606;2022-11-30T08:14:02;18.37;;;7.77;;
68821;SDS011;55834;50.870;4.606;2022-11-30T08:16:28;17.63;;;8.02;;
68821;SDS011;55834;50.870;4.606;2022-11-30T08:18:55;18.73;;;8.75;;
68821;SDS011;55834;50.870;4.606;2022-11-30T08:21:21;26.30;;;8.75;;
68821;SDS011;55834;50.870;4.606;2022-11-30T08:23:49;19.40;;;7.80;;
68821;SDS011;55834;50.870;4.606;2022-11-30T08:28:46;46.60;;;10.43;;
68821;SDS011;55834;50.870;4.606;2022-11-30T08:31:14;20.13;;;8.63;;
68821;SDS011;55834;50.870;4.606;2022-11-30T08:33:40;20.88;;;9.68;;
68821;SDS011;55834;50.870;4.606;2022-11-30T08:36:10;60.10;;;11.52;;
68821;SDS011;55834;50.870;4.606;2022-11-30T08:38:37;27.02;;;9.73;;
68821;SDS011;55834;50.870;4.606;2022-11-30T08:41:04;17.17;;;8.25;;
68821;SDS011;55834;50.870;4.606;2022-11-30T08:43:31;16.98;;;8.00;;
68821;SDS011;55834;50.870;4.606;2022-11-30T08:45:57;29.90;;;10.48;;
68821;SDS011;55834;50.870;4.606;2022-11-30T08:48:23;16.52;;;7.60;;
68821;SDS011;55834;50.870;4.606;2022-11-30T08:50:48;21.00;;;9.38;;
68821;SDS011;55834;50.870;4.606;2022-11-30T08:53:14;22.58;;;9.13;;
68821;SDS011;55834;50.870;4.606;2022-11-30T08:55:39;23.08;;;8.45;;
68821;SDS011;55834;50.870;4.606;2022-11-30T08:58:05;19.55;;;9.10;;
68821;SDS011;55834;50.870;4.606;2022-11-30T09:00:30;18.05;;;9.52;;
68821;SDS011;55834;50.870;4.606;2022-11-30T09:02:56;21.13;;;9.73;;
68821;SDS011;55834;50.870;4.606;2022-11-30T09:05:22;16.38;;;8.25;;
68821;SDS011;55834;50.870;4.606;2022-11-30T09:07:48;20.15;;;10.32;;
68821;SDS011;55834;50.870;4.606;2022-11-30T09:10:13;32.50;;;10.37;;
68821;SDS011;55834;50.870;4.606;2022-11-30T09:12:39;21.02;;;8.73;;
68821;SDS011;55834;50.870;4.606;2022-11-30T09:15:05;29.52;;;9.57;;
68821;SDS011;55834;50.870;4.606;2022-11-30T09:19:57;16.00;;;6.65;;
68821;SDS011;55834;50.870;4.606;2022-11-30T09:22:23;27.17;;;9.43;;
68821;SDS011;55834;50.870;4.606;2022-11-30T09:24:49;27.02;;;9.65;;
68821;SDS011;55834;50.870;4.606;2022-11-30T09:27:14;32.17;;;10.97;;
68821;SDS011;55834;50.870;4.606;2022-11-30T09:29:39;32.87;;;9.37;;
68821;SDS011;55834;50.870;4.606;2022-11-30T09:32:05;18.33;;;8.93;;
68821;SDS011;55834;50.870;4.606;2022-11-30T09:34:30;19.15;;;9.55;;
68821;SDS011;55834;50.870;4.606;2022-11-30T09:36:56;51.37;;;12.53;;
68821;SDS011;55834;50.870;4.606;2022-11-30T09:39:21;22.13;;;10.03;;
68821;SDS011;55834;50.870;4.606;2022-11-30T09:44:49;21.08;;;10.27;;
68821;SDS011;55834;50.870;4.606;2022-11-30T09:50:13;20.40;;;9.15;;
68821;SDS011;55834;50.870;4.606;2022-11-30T09:52:41;18.88;;;9.38;;
68821;SDS011;55834;50.870;4.606;2022-11-30T09:55:11;22.95;;;10.10;;
68821;SDS011;55834;50.870;4.606;2022-11-30T09:57:46;25.83;;;12.23;;
68821;SDS011;55834;50.870;4.606;2022-11-30T10:00:20;23.63;;;9.75;;
68821;SDS011;55834;50.870;4.606;2022-11-30T10:02:48;40.47;;;11.63;;
68821;SDS011;55834;50.870;4.606;2022-11-30T10:05:16;20.02;;;10.10;;
68821;SDS011;55834;50.870;4.606;2022-11-30T10:16:18;23.50;;;9.27;;
68821;SDS011;55834;50.870;4.606;2022-11-30T10:18:59;23.10;;;9.93;;
68821;SDS011;55834;50.870;4.606;2022-11-30T10:24:35;23.85;;;10.88;;
68821;SDS011;55834;50.870;4.606;2022-11-30T10:27:16;22.73;;;9.88;;
68821;SDS011;55834;50.870;4.606;2022-11-30T10:29:49;21.23;;;10.30;;
68821;SDS011;55834;50.870;4.606;2022-11-30T10:32:28;21.25;;;9.00;;
68821;SDS011;55834;50.870;4.606;2022-11-30T10:35:03;23.17;;;10.60;;
68821;SDS011;55834;50.870;4.606;2022-11-30T10:40:16;28.55;;;12.10;;
68821;SDS011;55834;50.870;4.606;2022-11-30T10:45:28;24.85;;;12.50;;
68821;SDS011;55834;50.870;4.606;2022-11-30T10:50:57;27.65;;;11.38;;
68821;SDS011;55834;50.870;4.606;2022-11-30T10:53:25;28.27;;;10.63;;
68821;SDS011;55834;50.870;4.606;2022-11-30T10:55:55;27.53;;;11.87;;
68821;SDS011;55834;50.870;4.606;2022-11-30T11:01:27;23.63;;;10.88;;
68821;SDS011;55834;50.870;4.606;2022-11-30T11:04:13;25.98;;;10.82;;
68821;SDS011;55834;50.870;4.606;2022-11-30T11:09:21;26.52;;;10.43;;
68821;SDS011;55834;50.870;4.606;2022-11-30T11:11:51;27.75;;;13.07;;
68821;SDS011;55834;50.870;4.606;2022-11-30T11:14:19;27.95;;;11.32;;
68821;SDS011;55834;50.870;4.606;2022-11-30T11:16:56;24.80;;;11.63;;
68821;SDS011;55834;50.870;4.606;2022-11-30T11:19:31;48.13;;;15.57;;
68821;SDS011;55834;50.870;4.606;2022-11-30T11:22:00;26.90;;;12.45;;
68821;SDS011;55834;50.870;4.606;2022-11-30T11:24:28;27.80;;;12.73;;
68821;SDS011;55834;50.870;4.606;2022-11-30T11:26:54;22.67;;;10.02;;
68821;SDS011;55834;50.870;4.606;2022-11-30T11:29:22;23.35;;;11.15;;
68821;SDS011;55834;50.870;4.606;2022-11-30T11:32:04;23.23;;;11.52;;
68821;SDS011;55834;50.870;4.606;2022-11-30T11:34:40;27.55;;;12.32;;
68821;SDS011;55834;50.870;4.606;2022-11-30T11:37:09;28.77;;;9.95;;
68821;SDS011;55834;50.870;4.606;2022-11-30T11:39:41;24.35;;;11.70;;
68821;SDS011;55834;50.870;4.606;2022-11-30T11:42:12;30.08;;;11.90;;
68821;SDS011;55834;50.870;4.606;2022-11-30T11:44:43;24.35;;;10.90;;
68821;SDS011;55834;50.870;4.606;2022-11-30T11:49:50;33.72;;;14.05;;
68821;SDS011;55834;50.870;4.606;2022-11-30T11:52:27;24.38;;;11.77;;
68821;SDS011;55834;50.870;4.606;2022-11-30T11:54:53;26.43;;;10.83;;
68821;SDS011;55834;50.870;4.606;2022-11-30T11:57:30;23.23;;;10.60;;
68821;SDS011;55834;50.870;4.606;2022-11-30T12:00:18;26.52;;;11.95;;
68821;SDS011;55834;50.870;4.606;2022-11-30T12:02:58;28.08;;;13.90;;
68821;SDS011;55834;50.870;4.606;2022-11-30T12:08:43;29.55;;;12.55;;
68821;SDS011;55834;50.870;4.606;2022-11-30T12:14:13;23.42;;;11.23;;
68821;SDS011;55834;50.870;4.606;2022-11-30T12:16:55;25.85;;;11.30;;
68821;SDS011;55834;50.870;4.606;2022-11-30T12:19:57;23.35;;;11.30;;
68821;SDS011;55834;50.870;4.606;2022-11-30T12:25:26;26.88;;;12.77;;
68821;SDS011;55834;50.870;4.606;2022-11-30T12:28:12;24.15;;;11.93;;
68821;SDS011;55834;50.870;4.606;2022-11-30T12:30:43;32.65;;;14.02;;
68821;SDS011;55834;50.870;4.606;2022-11-30T12:41:35;29.33;;;11.27;;
68821;SDS011;55834;50.870;4.606;2022-11-30T12:49:27;25.48;;;12.80;;
68821;SDS011;55834;50.870;4.606;2022-11-30T12:52:00;28.05;;;12.65;;
68821;SDS011;55834;50.870;4.606;2022-11-30T12:57:43;28.13;;;12.68;;
68821;SDS011;55834;50.870;4.606;2022-11-30T13:00:12;26.08;;;12.35;;
68821;SDS011;55834;50.870;4.606;2022-11-30T13:05:35;26.77;;;12.15;;
68821;SDS011;55834;50.870;4.606;2022-11-30T13:10:56;29.33;;;13.70;;
68821;SDS011;55834;50.870;4.606;2022-11-30T13:13:31;23.95;;;12.13;;
68821;SDS011;55834;50.870;4.606;2022-11-30T13:16:00;24.65;;;11.23;;
68821;SDS011;55834;50.870;4.606;2022-11-30T13:18:29;27.00;;;12.68;;
68821;SDS011;55834;50.870;4.606;2022-11-30T13:21:20;26.58;;;12.77;;
68821;SDS011;55834;50.870;4.606;2022-11-30T13:34:27;22.67;;;10.82;;
68821;SDS011;55834;50.870;4.606;2022-11-30T13:37:26;24.38;;;11.25;;
68821;SDS011;55834;50.870;4.606;2022-11-30T13:39:49;25.67;;;12.32;;
68821;SDS011;55834;50.870;4.606;2022-11-30T13:47:35;24.05;;;10.95;;
68821;SDS011;55834;50.870;4.606;2022-11-30T13:50:04;25.08;;;12.68;;
68821;SDS011;55834;50.870;4.606;2022-11-30T13:58:08;28.08;;;13.75;;
68821;SDS011;55834;50.870;4.606;2022-11-30T14:05:45;30.58;;;12.85;;
68821;SDS011;55834;50.870;4.606;2022-11-30T14:10:46;30.73;;;14.82;;
68821;SDS011;55834;50.870;4.606;2022-11-30T14:20:32;27.20;;;11.55;;
68821;SDS011;55834;50.870;4.606;2022-11-30T14:23:03;29.08;;;13.32;;
68821;SDS011;55834;50.870;4.606;2022-11-30T14:25:31;30.80;;;14.00;;
68821;SDS011;55834;50.870;4.606;2022-11-30T14:27:59;30.48;;;15.75;;
68821;SDS011;55834;50.870;4.606;2022-11-30T14:30:28;32.05;;;14.40;;
68821;SDS011;55834;50.870;4.606;2022-11-30T14:33:03;30.42;;;15.38;;
68821;SDS011;55834;50.870;4.606;2022-11-30T14:35:37;30.02;;;14.60;;
68821;SDS011;55834;50.870;4.606;2022-11-30T14:38:04;31.60;;;15.30;;
68821;SDS011;55834;50.870;4.606;2022-11-30T14:40:48;30.00;;;12.63;;
68821;SDS011;55834;50.870;4.606;2022-11-30T14:43:15;29.60;;;14.50;;
68821;SDS011;55834;50.870;4.606;2022-11-30T14:45:42;32.45;;;14.43;;
68821;SDS011;55834;50.870;4.606;2022-11-30T14:48:19;26.42;;;11.73;;
68821;SDS011;55834;50.870;4.606;2022-11-30T14:50:47;33.95;;;13.40;;
68821;SDS011;55834;50.870;4.606;2022-11-30T14:55:56;28.20;;;12.15;;
68821;SDS011;55834;50.870;4.606;2022-11-30T15:00:53;27.58;;;12.98;;
68821;SDS011;55834;50.870;4.606;2022-11-30T15:05:49;27.85;;;13.38;;
68821;SDS011;55834;50.870;4.606;2022-11-30T15:08:16;30.60;;;14.45;;
68821;SDS011;55834;50.870;4.606;2022-11-30T15:10:42;27.38;;;12.95;;
68821;SDS011;55834;50.870;4.606;2022-11-30T15:13:10;29.52;;;14.18;;
68821;SDS011;55834;50.870;4.606;2022-11-30T15:15:48;29.38;;;13.25;;
68821;SDS011;55834;50.870;4.606;2022-11-30T15:18:15;28.73;;;13.07;;
68821;SDS011;55834;50.870;4.606;2022-11-30T15:23:14;28.75;;;14.48;;
68821;SDS011;55834;50.870;4.606;2022-11-30T15:25:44;26.48;;;12.82;;
68821;SDS011;55834;50.870;4.606;2022-11-30T15:28:40;29.67;;;13.90;;
68821;SDS011;55834;50.870;4.606;2022-11-30T15:31:08;26.73;;;12.88;;
68821;SDS011;55834;50.870;4.606;2022-11-30T15:33:41;29.88;;;14.30;;
68821;SDS011;55834;50.870;4.606;2022-11-30T15:36:09;29.45;;;13.70;;
68821;SDS011;55834;50.870;4.606;2022-11-30T15:38:36;33.38;;;15.70;;
68821;SDS011;55834;50.870;4.606;2022-11-30T15:41:03;36.60;;;15.32;;
68821;SDS011;55834;50.870;4.606;2022-11-30T15:43:33;27.52;;;14.57;;
68821;SDS011;55834;50.870;4.606;2022-11-30T15:46:01;26.98;;;12.57;;
68821;SDS011;55834;50.870;4.606;2022-11-30T15:48:37;30.77;;;14.43;;
68821;SDS011;55834;50.870;4.606;2022-11-30T15:51:04;34.50;;;14.10;;
68821;SDS011;55834;50.870;4.606;2022-11-30T15:53:34;27.15;;;13.90;;
68821;SDS011;55834;50.870;4.606;2022-11-30T15:56:21;29.02;;;13.07;;
68821;SDS011;55834;50.870;4.606;2022-11-30T15:59:30;30.20;;;14.10;;
68821;SDS011;55834;50.870;4.606;2022-11-30T16:01:51;33.35;;;13.63;;
68821;SDS011;55834;50.870;4.606;2022-11-30T16:04:26;30.73;;;15.98;;
68821;SDS011;55834;50.870;4.606;2022-11-30T16:09:41;30.08;;;12.38;;
68821;SDS011;55834;50.870;4.606;2022-11-30T16:12:06;30.10;;;14.40;;
68821;SDS011;55834;50.870;4.606;2022-11-30T16:14:51;31.75;;;14.80;;
68821;SDS011;55834;50.870;4.606;2022-11-30T16:17:16;31.20;;;17.37;;
68821;SDS011;55834;50.870;4.606;2022-11-30T16:19:41;31.77;;;14.07;;
68821;SDS011;55834;50.870;4.606;2022-11-30T16:22:08;43.97;;;19.63;;
68821;SDS011;55834;50.870;4.606;2022-11-30T16:24:35;53.13;;;21.13;;
68821;SDS011;55834;50.870;4.606;2022-11-30T16:27:01;56.83;;;21.17;;
68821;SDS011;55834;50.870;4.606;2022-11-30T16:29:40;43.22;;;18.17;;
68821;SDS011;55834;50.870;4.606;2022-11-30T16:32:07;37.63;;;14.13;;
68821;SDS011;55834;50.870;4.606;2022-11-30T16:34:36;31.92;;;15.20;;
68821;SDS011;55834;50.870;4.606;2022-11-30T16:37:01;29.77;;;13.83;;
68821;SDS011;55834;50.870;4.606;2022-11-30T16:39:28;29.10;;;14.00;;
68821;SDS011;55834;50.870;4.606;2022-11-30T16:41:53;33.37;;;14.83;;
68821;SDS011;55834;50.870;4.606;2022-11-30T16:44:19;26.43;;;11.90;;
68821;SDS011;55834;50.870;4.606;2022-11-30T16:46:44;25.97;;;12.70;;
68821;SDS011;55834;50.870;4.606;2022-11-30T16:49:09;34.70;;;16.83;;
68821;SDS011;55834;50.870;4.606;2022-11-30T16:51:35;34.50;;;15.40;;
68821;SDS011;55834;50.870;4.606;2022-11-30T16:54:00;34.50;;;16.35;;
68821;SDS011;55834;50.870;4.606;2022-11-30T16:56:26;30.60;;;12.43;;
68821;SDS011;55834;50.870;4.606;2022-11-30T16:58:51;32.00;;;14.93;;